Time;durP1;ratioP1;P1;durP2;ratioP2;P2;SDS_P1;SDS_P2;PMS_P1;PMS_P2;Temp;Humidity;BMP_temperature;BMP_pressure;BME280_temperature;BME280_humidity;BME280_pressure;Samples;Min_cycle;Max_cycle;Signal;HPM_P1;HPM_P2
2022/07/12 00:01:55;;;;;;;1.58;0.30;;;14.90;99.90;;;;;;5086048;28;20043;-46
2022/07/12 00:04:21;;;;;;;0.52;0.20;;;14.80;99.90;;;;;;5069251;28;20036;-47
2022/07/12 00:06:46;;;;;;;0.20;0.10;;;14.70;99.90;;;;;;5071642;28;20036;-48
2022/07/12 00:09:12;;;;;;;0.50;0.30;;;14.70;99.90;;;;;;5070885;28;20264;-46
2022/07/12 00:11:37;;;;;;;3.72;0.17;;;14.60;99.90;;;;;;5069918;28;20115;-47
2022/07/12 00:14:04;;;;;;;0.40;0.20;;;14.60;99.90;;;;;;5070266;28;20327;-46
2022/07/12 00:16:30;;;;;;;1.73;0.60;;;14.60;99.90;;;;;;5070585;28;20468;-51
2022/07/12 00:18:55;;;;;;;0.80;0.30;;;14.60;99.90;;;;;;5089047;28;20075;-48
2022/07/12 00:21:21;;;;;;;0.65;0.40;;;14.60;99.90;;;;;;5090277;28;20119;-48
2022/07/12 00:23:46;;;;;;;0.30;0.20;;;14.50;99.90;;;;;;5090116;28;20496;-49
2022/07/12 00:26:12;;;;;;;0.40;0.25;;;14.50;99.90;;;;;;5090233;28;20753;-46
2022/07/12 00:28:38;;;;;;;0.85;0.20;;;14.40;99.90;;;;;;5077504;28;20037;-51
2022/07/12 00:31:04;;;;;;;0.68;0.40;;;14.30;99.90;;;;;;5070636;28;20075;-49
2022/07/12 00:33:29;;;;;;;0.30;0.20;;;14.30;99.90;;;;;;5083168;28;20040;-46
2022/07/12 00:35:55;;;;;;;0.40;0.30;;;14.20;99.90;;;;;;5090452;28;20040;-46
2022/07/12 00:38:21;;;;;;;0.63;0.32;;;14.20;99.90;;;;;;5088568;28;20028;-47
2022/07/12 00:40:47;;;;;;;0.20;0.10;;;14.20;99.90;;;;;;5090248;28;20496;-48
2022/07/12 00:43:13;;;;;;;0.45;0.30;;;14.20;99.90;;;;;;5089513;28;20086;-47
2022/07/12 00:45:38;;;;;;;0.63;0.20;;;14.20;99.90;;;;;;5090415;28;20115;-46
2022/07/12 00:48:04;;;;;;;0.20;0.20;;;14.10;99.90;;;;;;5089594;28;20125;-46
2022/07/12 00:50:30;;;;;;;0.15;0.10;;;14.10;99.90;;;;;;5089379;28;20098;-50
2022/07/12 00:52:56;;;;;;;0.10;0.10;;;14.10;99.90;;;;;;5089022;28;20551;-50
2022/07/12 00:55:22;;;;;;;0.32;0.17;;;14.00;99.90;;;;;;5087734;28;20044;-48
2022/07/12 00:57:48;;;;;;;0.90;0.32;;;14.00;99.90;;;;;;5069906;28;20072;-46
2022/07/12 01:00:21;;;;;;;0.73;0.20;;;14.10;99.90;;;;;;5076370;28;20081;-48
2022/07/12 01:02:47;;;;;;;0.17;0.10;;;14.10;99.90;;;;;;5072463;28;20047;-46
2022/07/12 01:05:13;;;;;;;0.40;0.22;;;14.00;99.90;;;;;;5070187;28;20032;-50
2022/07/12 01:07:40;;;;;;;0.30;0.20;;;14.00;99.90;;;;;;5072035;28;20474;-51
2022/07/12 01:10:06;;;;;;;0.28;0.20;;;14.00;99.90;;;;;;5075513;28;20039;-48
2022/07/12 01:12:32;;;;;;;0.55;0.15;;;14.00;99.90;;;;;;5078696;28;20028;-50
2022/07/12 01:14:58;;;;;;;0.50;0.25;;;13.90;99.90;;;;;;5080010;28;20826;-47
2022/07/12 01:17:26;;;;;;;0.88;0.20;;;13.90;99.90;;;;;;5069460;28;20119;-48
2022/07/12 01:19:54;;;;;;;0.20;0.20;;;13.90;99.90;;;;;;5070313;28;20107;-47
2022/07/12 01:22:25;;;;;;;0.40;0.30;;;13.90;99.90;;;;;;5069680;28;20032;-48
2022/07/12 01:24:50;;;;;;;1.17;0.22;;;13.90;99.90;;;;;;5082873;28;20493;-48
2022/07/12 01:27:17;;;;;;;0.20;0.17;;;13.90;99.90;;;;;;5089704;28;20260;-47
2022/07/12 01:29:43;;;;;;;1.13;0.10;;;13.90;99.90;;;;;;5089846;28;20048;-48
2022/07/12 01:32:24;;;;;;;0.20;0.10;;;13.90;99.90;;;;;;5074687;28;20044;-46
2022/07/12 01:35:05;;;;;;;1.48;0.10;;;13.80;99.90;;;;;;5067563;28;20049;-49
2022/07/12 01:37:34;;;;;;;0.00;0.00;;;13.70;99.90;;;;;;5069700;28;20040;-47
2022/07/12 01:40:00;;;;;;;0.10;0.00;;;13.60;99.90;;;;;;5069259;28;20130;-46
2022/07/12 01:42:28;;;;;;;0.00;0.00;;;13.40;99.90;;;;;;5083191;28;20040;-51
2022/07/12 01:44:54;;;;;;;1.42;0.00;;;13.40;99.90;;;;;;5088438;28;20516;-45
2022/07/12 01:47:23;;;;;;;0.20;0.10;;;13.40;99.90;;;;;;5089484;28;20028;-46
2022/07/12 01:49:49;;;;;;;1.27;0.30;;;13.40;99.90;;;;;;5087868;28;20560;-48
2022/07/12 01:52:15;;;;;;;0.40;0.30;;;13.40;99.90;;;;;;5086797;28;20074;-49
2022/07/12 01:54:41;;;;;;;0.50;0.30;;;13.40;99.90;;;;;;5089183;28;20296;-50
2022/07/12 01:57:07;;;;;;;0.75;0.10;;;13.50;99.90;;;;;;5087292;28;20055;-50
2022/07/12 01:59:33;;;;;;;0.10;0.10;;;13.50;99.90;;;;;;5077715;28;20071;-47
2022/07/12 02:02:00;;;;;;;0.40;0.08;;;13.50;99.90;;;;;;5087568;28;20509;-45
2022/07/12 02:04:26;;;;;;;0.77;0.13;;;13.50;99.90;;;;;;5068093;28;20115;-48
2022/07/12 02:06:52;;;;;;;0.30;0.20;;;13.50;99.90;;;;;;5068650;28;20074;-51
2022/07/12 02:09:17;;;;;;;0.60;0.20;;;13.50;99.90;;;;;;5069176;28;20409;-48
2022/07/12 02:11:44;;;;;;;1.58;0.47;;;13.50;99.90;;;;;;5068341;28;20093;-46
2022/07/12 02:14:14;;;;;;;0.50;0.30;;;13.40;99.90;;;;;;5069910;28;20043;-50
2022/07/12 02:16:43;;;;;;;0.30;0.20;;;13.40;99.90;;;;;;5069517;28;20485;-47
2022/07/12 02:19:10;;;;;;;0.40;0.30;;;13.40;99.90;;;;;;5084739;28;20444;-48
2022/07/12 02:21:36;;;;;;;0.77;0.32;;;13.40;99.90;;;;;;5072617;28;20056;-50
2022/07/12 02:24:02;;;;;;;0.30;0.10;;;13.40;99.90;;;;;;5071978;28;20039;-47
2022/07/12 02:26:28;;;;;;;0.68;0.20;;;13.40;99.90;;;;;;5072737;28;20044;-45
2022/07/12 02:28:53;;;;;;;2.63;0.20;;;13.40;99.90;;;;;;5072991;28;20040;-46
2022/07/12 02:31:19;;;;;;;1.10;0.10;;;13.30;99.90;;;;;;5084335;28;20085;-46
2022/07/12 02:33:45;;;;;;;0.10;0.05;;;13.20;99.90;;;;;;5086866;28;20051;-49
2022/07/12 02:36:10;;;;;;;0.20;0.10;;;13.20;99.90;;;;;;5072392;28;20107;-44
2022/07/12 02:38:36;;;;;;;1.00;0.20;;;13.00;99.90;;;;;;5072449;28;20527;-46
2022/07/12 02:41:02;;;;;;;1.17;0.20;;;13.00;99.90;;;;;;5072856;28;20036;-46
2022/07/12 02:43:29;;;;;;;0.80;0.50;;;12.90;99.90;;;;;;5072103;28;20032;-48
2022/07/12 02:46:03;;;;;;;0.95;0.63;;;12.90;99.90;;;;;;5072898;28;20141;-44
2022/07/12 02:48:30;;;;;;;2.20;0.50;;;12.80;99.90;;;;;;5073033;28;20051;-46
2022/07/12 02:50:55;;;;;;;18.73;2.08;;;12.90;99.90;;;;;;5072138;28;20410;-49
2022/07/12 02:53:22;;;;;;;1.30;0.90;;;12.90;99.90;;;;;;5071247;28;20041;-46
2022/07/12 02:55:47;;;;;;;0.95;0.60;;;12.90;99.90;;;;;;5073820;28;20111;-46
2022/07/12 02:58:13;;;;;;;1.33;0.98;;;12.90;99.90;;;;;;5074451;28;20512;-45
2022/07/12 03:00:39;;;;;;;2.70;0.52;;;12.90;99.90;;;;;;5092531;28;20039;-49
2022/07/12 03:03:07;;;;;;;0.77;0.45;;;12.90;99.90;;;;;;5090468;28;20577;-48
2022/07/12 03:05:36;;;;;;;0.50;0.30;;;12.80;99.90;;;;;;5082934;28;20040;-50
2022/07/12 03:08:05;;;;;;;0.70;0.57;;;12.70;99.90;;;;;;5072040;28;20507;-48
2022/07/12 03:10:30;;;;;;;0.52;0.30;;;12.70;99.90;;;;;;5091981;28;20056;-49
2022/07/12 03:12:56;;;;;;;2.78;0.60;;;12.70;99.90;;;;;;5091266;28;20043;-46
2022/07/12 03:15:22;;;;;;;0.70;0.40;;;12.60;99.90;;;;;;5090146;28;20047;-49
2022/07/12 03:17:47;;;;;;;0.77;0.43;;;12.60;99.90;;;;;;5091521;28;20493;-47
2022/07/12 03:20:14;;;;;;;16.77;0.50;;;12.60;99.90;;;;;;5079299;28;20645;-45
2022/07/12 03:22:46;;;;;;;4.18;0.43;;;12.60;99.90;;;;;;5091584;28;20486;-47
2022/07/12 03:25:12;;;;;;;4.40;0.75;;;12.60;99.90;;;;;;5082161;28;20320;-46
2022/07/12 03:27:37;;;;;;;7.32;0.40;;;12.50;99.90;;;;;;5071331;28;20044;-47
2022/07/12 03:30:04;;;;;;;9.68;0.93;;;12.50;99.90;;;;;;5071112;28;20036;-46
2022/07/12 03:32:29;;;;;;;5.47;0.70;;;12.40;99.90;;;;;;5071006;28;20429;-46
2022/07/12 03:34:55;;;;;;;5.03;1.13;;;12.40;99.90;;;;;;5071185;28;20036;-46
2022/07/12 03:37:20;;;;;;;22.13;2.08;;;12.40;99.90;;;;;;5084062;28;20064;-45
2022/07/12 03:39:46;;;;;;;35.88;1.83;;;12.40;99.90;;;;;;5091412;28;20047;-47
2022/07/12 03:42:12;;;;;;;19.15;1.15;;;12.30;99.90;;;;;;5091628;28;20047;-48
2022/07/12 03:44:38;;;;;;;5.07;0.70;;;12.40;99.90;;;;;;5091383;28;20089;-45
2022/07/12 03:47:04;;;;;;;42.70;1.90;;;12.40;99.90;;;;;;5089616;28;20040;-45
2022/07/12 03:49:29;;;;;;;8.38;0.50;;;12.30;99.90;;;;;;5091867;28;20036;-49
2022/07/12 03:51:55;;;;;;;1.30;0.50;;;12.40;99.90;;;;;;5089300;28;20447;-45
2022/07/12 03:54:20;;;;;;;0.90;0.50;;;12.40;99.90;;;;;;5083205;28;20051;-46
2022/07/12 03:59:30;;;;;;;9.43;1.02;;;12.40;99.90;;;;;;5070865;28;20083;-47
2022/07/12 04:01:56;;;;;;;1.57;0.93;;;12.40;99.90;;;;;;5070580;28;20072;-49
2022/07/12 04:04:22;;;;;;;1.17;0.40;;;12.40;99.90;;;;;;5069103;28;20036;-45
2022/07/12 04:06:47;;;;;;;0.50;0.30;;;12.40;99.90;;;;;;5070823;28;20037;-46
2022/07/12 04:09:13;;;;;;;0.80;0.50;;;12.50;99.90;;;;;;5091603;28;20342;-46
2022/07/12 04:11:38;;;;;;;2.75;0.50;;;12.40;99.90;;;;;;5090472;28;20282;-46
2022/07/12 04:14:04;;;;;;;0.80;0.60;;;12.50;99.90;;;;;;5090161;28;20051;-48
2022/07/12 04:16:30;;;;;;;0.50;0.40;;;12.50;99.90;;;;;;5089793;28;20047;-46
2022/07/12 04:18:56;;;;;;;0.70;0.50;;;12.50;99.90;;;;;;5088973;28;20036;-45
2022/07/12 04:21:22;;;;;;;0.98;0.68;;;12.50;99.90;;;;;;5087521;28;20282;-46
2022/07/12 04:23:47;;;;;;;9.52;0.60;;;12.50;99.90;;;;;;5075997;28;20390;-47
2022/07/12 04:26:13;;;;;;;1.00;0.87;;;12.50;99.90;;;;;;5088647;28;20039;-46
2022/07/12 04:28:39;;;;;;;0.80;0.68;;;12.60;99.90;;;;;;5083934;28;20295;-48
2022/07/12 04:31:06;;;;;;;9.48;1.30;;;12.60;99.90;;;;;;5082271;28;20076;-46
2022/07/12 04:33:32;;;;;;;11.80;0.70;;;12.60;99.90;;;;;;5087356;28;20498;-46
2022/07/12 04:35:58;;;;;;;3.80;0.40;;;12.60;99.90;;;;;;5090331;28;20502;-46
2022/07/12 04:38:23;;;;;;;1.05;0.32;;;12.60;99.90;;;;;;5090098;28;20357;-50
2022/07/12 04:40:49;;;;;;;5.77;0.50;;;12.60;99.90;;;;;;5069441;28;20037;-49
2022/07/12 04:43:14;;;;;;;0.60;0.40;;;12.70;99.90;;;;;;5067251;28;20278;-44
2022/07/12 04:45:43;;;;;;;5.63;0.70;;;12.70;99.90;;;;;;5070529;28;20735;-45
2022/07/12 04:48:10;;;;;;;1.02;0.70;;;12.70;99.90;;;;;;5070086;28;20055;-45
2022/07/12 04:50:35;;;;;;;16.75;0.95;;;12.70;99.90;;;;;;5071307;28;20456;-48
2022/07/12 04:53:01;;;;;;;5.57;0.60;;;12.70;99.90;;;;;;5069010;28;20032;-47
2022/07/12 04:55:27;;;;;;;7.47;0.82;;;12.80;99.90;;;;;;5070556;28;20032;-46
2022/07/12 04:57:52;;;;;;;2.05;0.60;;;12.80;99.90;;;;;;5069695;28;20372;-47
2022/07/12 05:00:18;;;;;;;2.60;0.80;;;12.80;99.90;;;;;;5077151;28;20039;-46
2022/07/12 05:02:43;;;;;;;5.23;1.00;;;12.80;99.90;;;;;;5089396;28;20272;-47
2022/07/12 05:05:09;;;;;;;7.30;1.30;;;12.80;99.90;;;;;;5088295;28;20067;-49
2022/07/12 05:07:34;;;;;;;11.10;1.30;;;12.80;99.90;;;;;;5089844;28;20317;-46
2022/07/12 05:10:00;;;;;;;3.97;1.00;;;12.90;99.90;;;;;;5087872;28;20044;-46
2022/07/12 05:12:25;;;;;;;3.67;1.48;;;12.90;99.90;;;;;;5069323;28;20051;-47
2022/07/12 05:14:51;;;;;;;7.20;1.47;;;12.90;99.90;;;;;;5072027;28;20516;-46
2022/07/12 05:17:17;;;;;;;6.47;2.03;;;13.00;99.90;;;;;;5089486;28;20644;-46
2022/07/12 05:19:42;;;;;;;4.47;2.20;;;13.10;99.90;;;;;;5089676;28;20036;-46
2022/07/12 05:22:08;;;;;;;3.03;2.67;;;13.20;99.90;;;;;;5072711;28;20036;-45
2022/07/12 05:24:33;;;;;;;3.28;2.97;;;13.20;99.90;;;;;;5078388;28;20068;-46
2022/07/12 05:26:59;;;;;;;4.50;3.10;;;13.30;99.90;;;;;;5081079;28;20033;-49
2022/07/12 05:29:24;;;;;;;5.78;3.10;;;13.40;99.90;;;;;;5075408;28;20092;-50
2022/07/12 05:31:50;;;;;;;4.68;4.07;;;13.60;99.90;;;;;;5086555;28;20485;-46
2022/07/12 05:34:15;;;;;;;4.68;4.18;;;13.60;99.90;;;;;;5088996;28;20096;-45
2022/07/12 05:36:41;;;;;;;4.68;4.20;;;13.70;99.90;;;;;;5085269;28;20077;-45
2022/07/12 05:39:07;;;;;;;4.70;4.32;;;13.80;99.90;;;;;;5069608;28;20040;-46
2022/07/12 05:41:32;;;;;;;5.95;4.50;;;13.90;99.90;;;;;;5083867;28;20110;-50
2022/07/12 05:43:58;;;;;;;5.90;5.38;;;14.10;99.90;;;;;;5069646;28;20391;-47
2022/07/12 05:46:24;;;;;;;6.15;5.45;;;14.10;99.90;;;;;;5071316;28;20094;-45
2022/07/12 05:48:49;;;;;;;6.28;5.00;;;14.20;99.90;;;;;;5079366;28;20468;-46
2022/07/12 05:53:59;;;;;;;7.30;6.47;;;14.50;99.90;;;;;;5074434;28;20123;-49
2022/07/12 05:56:25;;;;;;;8.93;8.13;;;14.60;99.90;;;;;;5089559;28;20115;-46
2022/07/12 05:58:50;;;;;;;11.23;8.57;;;14.70;99.90;;;;;;5074670;28;20460;-45
2022/07/12 06:01:17;;;;;;;9.77;8.77;;;14.80;99.90;;;;;;5073483;28;20037;-46
2022/07/12 06:03:42;;;;;;;10.27;7.93;;;14.90;99.90;;;;;;5072580;28;20039;-48
2022/07/12 06:06:08;;;;;;;9.77;8.57;;;15.00;99.90;;;;;;5073413;28;20041;-46
2022/07/12 06:08:34;;;;;;;9.35;8.50;;;15.20;99.90;;;;;;5077242;28;20040;-46
2022/07/12 06:10:59;;;;;;;9.50;8.45;;;15.30;99.90;;;;;;5087406;28;20508;-46
2022/07/12 06:13:25;;;;;;;12.07;8.63;;;15.50;99.90;;;;;;5086867;28;20077;-46
2022/07/12 06:15:50;;;;;;;9.18;8.35;;;15.60;99.90;;;;;;5076809;28;20572;-47
2022/07/12 06:18:16;;;;;;;9.93;9.02;;;15.80;99.90;;;;;;5080837;28;20501;-48
2022/07/12 06:20:41;;;;;;;9.32;8.48;;;15.90;99.90;;;;;;5087018;28;20039;-47
2022/07/12 06:23:07;;;;;;;9.52;8.15;;;16.10;99.90;;;;;;5072886;28;20107;-46
2022/07/12 06:25:32;;;;;;;9.10;8.30;;;16.20;99.90;;;;;;5073219;28;20036;-48
2022/07/12 06:28:01;;;;;;;8.43;7.65;;;16.30;99.90;;;;;;5083775;28;20463;-46
2022/07/12 06:30:27;;;;;;;8.25;7.55;;;16.50;99.90;;;;;;5080897;28;20040;-49
2022/07/12 06:32:53;;;;;;;7.13;6.53;;;16.60;99.90;;;;;;5083948;28;20039;-45
2022/07/12 06:35:18;;;;;;;8.52;5.95;;;16.60;99.90;;;;;;5079796;28;20032;-49
2022/07/12 06:37:44;;;;;;;80.60;11.90;;;16.70;99.90;;;;;;5078325;28;20040;-48
2022/07/12 06:40:10;;;;;;;7.90;7.13;;;16.70;99.90;;;;;;5086776;28;20040;-46
2022/07/12 06:42:36;;;;;;;;;;;16.80;99.90;;;;;;5077664;28;20029;-46
2022/07/12 06:45:02;;;;;;;8.82;7.88;;;16.80;99.90;;;;;;5071490;28;19926;-47
2022/07/12 06:47:27;;;;;;;;;;;16.90;99.90;;;;;;5072706;28;20036;-46
2022/07/12 06:49:53;;;;;;;8.82;7.80;;;16.90;99.90;;;;;;5086239;28;19962;-46
2022/07/12 06:52:18;;;;;;;30.40;8.77;;;17.00;99.90;;;;;;5083805;28;20120;-46
2022/07/12 06:54:44;;;;;;;420.45;47.10;;;17.00;99.90;;;;;;5084200;28;20119;-46
2022/07/12 06:57:10;;;;;;;14.82;8.40;;;17.10;99.90;;;;;;5076081;28;20047;-46
2022/07/12 06:59:35;;;;;;;12.32;7.35;;;17.10;99.90;;;;;;5071791;28;20490;-46
2022/07/12 07:02:01;;;;;;;13.18;8.25;;;17.20;99.90;;;;;;5072874;28;20028;-45
2022/07/12 07:04:27;;;;;;;16.25;8.73;;;17.20;99.90;;;;;;5070898;28;20037;-46
2022/07/12 07:06:53;;;;;;;7.88;6.93;;;17.30;99.90;;;;;;5075319;28;20383;-46
2022/07/12 07:09:18;;;;;;;13.40;7.72;;;17.40;99.90;;;;;;5091527;28;20050;-46
2022/07/12 07:11:44;;;;;;;9.10;7.75;;;17.40;99.90;;;;;;5074237;28;20048;-46
2022/07/12 07:14:10;;;;;;;10.10;7.45;;;17.50;99.90;;;;;;5079347;28;20041;-47
2022/07/12 07:16:36;;;;;;;23.70;8.05;;;17.50;99.90;;;;;;5081147;28;20469;-45
2022/07/12 07:19:02;;;;;;;10.38;6.72;;;17.60;99.90;;;;;;5076078;28;20043;-47
2022/07/12 07:21:28;;;;;;;7.97;6.70;;;17.70;99.90;;;;;;5071255;28;20033;-47
2022/07/12 07:23:53;;;;;;;10.65;5.82;;;17.70;99.90;;;;;;5075182;28;20449;-48
2022/07/12 07:26:20;;;;;;;7.05;5.47;;;17.80;99.90;;;;;;5073530;28;20525;-52
2022/07/12 07:31:33;;;;;;;9.57;5.43;;;17.90;99.90;;;;;;5072224;28;20036;-48
2022/07/12 07:33:58;;;;;;;7.43;5.75;;;18.00;99.90;;;;;;5072700;28;20124;-48
2022/07/12 07:36:24;;;;;;;8.80;5.60;;;18.00;99.90;;;;;;5072354;28;20472;-47
2022/07/12 07:38:49;;;;;;;8.52;5.30;;;18.10;99.90;;;;;;5088247;28;20173;-46
2022/07/12 07:41:15;;;;;;;5.55;4.97;;;18.30;99.90;;;;;;5081658;28;20063;-46
2022/07/12 07:43:40;;;;;;;5.93;5.53;;;18.30;99.90;;;;;;5078258;28;20036;-46
2022/07/12 07:46:06;;;;;;;6.45;5.50;;;18.40;99.90;;;;;;5073960;28;20048;-47
2022/07/12 07:48:31;;;;;;;5.47;5.15;;;18.50;99.90;;;;;;5076912;28;20047;-48
2022/07/12 07:50:57;;;;;;;81.45;8.27;;;18.50;99.90;;;;;;5075233;28;20048;-47
2022/07/12 07:53:24;;;;;;;5.28;4.85;;;18.60;99.90;;;;;;5073802;28;20047;-48
2022/07/12 07:55:50;;;;;;;6.70;6.10;;;18.70;99.90;;;;;;5084852;28;20379;-48
2022/07/12 07:58:16;;;;;;;7.28;5.18;;;18.80;99.90;;;;;;5083743;28;20058;-52
2022/07/12 08:00:42;;;;;;;6.40;5.80;;;18.80;99.90;;;;;;5070935;28;20502;-51
2022/07/12 08:03:07;;;;;;;5.97;5.47;;;19.00;99.90;;;;;;5087866;28;20384;-50
2022/07/12 08:05:33;;;;;;;6.07;5.57;;;19.10;99.90;;;;;;5090400;28;20036;-49
2022/07/12 08:07:58;;;;;;;6.80;5.30;;;19.10;99.90;;;;;;5086566;28;20036;-48
2022/07/12 08:10:25;;;;;;;5.93;4.80;;;19.20;99.90;;;;;;5090922;28;20302;-47
2022/07/12 08:12:51;;;;;;;5.60;5.10;;;19.30;99.90;;;;;;5073670;28;20113;-52
2022/07/12 08:15:16;;;;;;;6.28;5.78;;;19.30;99.90;;;;;;5069422;28;20111;-49
2022/07/12 08:17:42;;;;;;;6.22;5.72;;;19.40;99.90;;;;;;5071927;28;20033;-48
2022/07/12 08:20:08;;;;;;;5.03;4.63;;;19.50;99.90;;;;;;5070693;28;20036;-47
2022/07/12 08:22:33;;;;;;;;;;;19.50;99.90;;;;;;5070348;28;20094;-52
2022/07/12 08:25:00;;;;;;;5.70;4.70;;;19.60;99.90;;;;;;5070036;28;20011;-48
2022/07/12 08:27:26;;;;;;;4.80;4.50;;;19.60;99.90;;;;;;5085925;28;20042;-47
2022/07/12 08:29:51;;;;;;;5.53;5.13;;;19.70;99.90;;;;;;5082060;28;20127;-50
2022/07/12 08:32:17;;;;;;;4.85;4.40;;;19.80;99.90;;;;;;5072240;28;20055;-51
2022/07/12 08:34:42;;;;;;;;;;;19.80;99.90;;;;;;5080963;28;20036;-52
2022/07/12 08:37:08;;;;;;;4.45;4.15;;;19.80;99.90;;;;;;5070278;28;19924;-51
2022/07/12 08:39:33;;;;;;;6.47;5.03;;;19.90;99.90;;;;;;5071832;28;20040;-47
2022/07/12 08:41:59;;;;;;;4.90;4.60;;;20.00;99.90;;;;;;5069528;28;20028;-48
2022/07/12 08:44:25;;;;;;;5.65;4.55;;;20.10;99.90;;;;;;5067566;28;20101;-48
2022/07/12 08:46:52;;;;;;;;;;;20.20;99.90;;;;;;5066557;28;20036;-50
2022/07/12 08:49:18;;;;;;;5.40;3.53;;;20.20;99.90;;;;;;5085054;28;20357;-50
2022/07/12 08:51:44;;;;;;;;;;;20.30;99.90;;;;;;5083439;28;20055;-48
2022/07/12 08:54:15;;;;;;;4.47;3.72;;;20.30;99.90;;;;;;5085613;28;19919;-50
2022/07/12 08:56:43;;;;;;;4.78;3.88;;;20.40;99.90;;;;;;5086342;28;20032;-52
2022/07/12 08:59:19;;;;;;;4.03;3.72;;;20.40;99.90;;;;;;5077177;28;20047;-48
2022/07/12 09:01:50;;;;;;;4.93;3.20;;;20.50;99.90;;;;;;5075625;28;20040;-49
2022/07/12 09:04:22;;;;;;;3.50;3.30;;;20.50;99.90;;;;;;5076824;28;20066;-50
2022/07/12 09:06:48;;;;;;;2.88;2.72;;;20.60;99.90;;;;;;5070535;28;20034;-47
2022/07/12 09:09:29;;;;;;;;;;;20.70;99.90;;;;;;5076172;28;20082;-48
2022/07/12 09:11:55;;;;;;;3.30;1.88;;;20.70;99.90;;;;;;5073926;28;19916;-50
2022/07/12 09:14:21;;;;;;;2.30;0.80;;;20.80;99.90;;;;;;5068970;28;20050;-48
2022/07/12 09:17:03;;;;;;;;;;;20.90;99.90;;;;;;5074006;28;20154;-48
2022/07/12 09:19:29;;;;;;;1.80;1.70;;;20.90;99.90;;;;;;5070723;28;19929;-47
2022/07/12 09:21:55;;;;;;;1.33;1.23;;;21.00;99.90;;;;;;5072963;28;20036;-51
2022/07/12 09:24:24;;;;;;;;;;;21.10;99.90;;;;;;5076273;28;20035;-48
2022/07/12 09:26:56;;;;;;;3.97;2.80;;;21.20;99.90;;;;;;5074091;28;19923;-48
2022/07/12 09:29:21;;;;;;;1.33;1.13;;;21.20;99.90;;;;;;5071768;28;20517;-47
2022/07/12 09:37:21;;;;;;;0.90;0.85;;;21.40;99.90;;;;;;5074647;28;20072;-47
2022/07/12 09:39:51;;;;;;;;;;;21.50;99.90;;;;;;5075626;28;20068;-49
2022/07/12 09:42:17;;;;;;;1.33;1.23;;;21.50;99.90;;;;;;5073359;28;19920;-49
2022/07/12 09:44:43;;;;;;;2.22;1.50;;;21.60;99.90;;;;;;5074883;28;20066;-47
2022/07/12 09:47:13;;;;;;;;;;;21.60;99.90;;;;;;5073257;28;20529;-47
2022/07/12 09:49:40;;;;;;;1.88;0.85;;;21.70;99.90;;;;;;5074486;28;19970;-47
2022/07/12 09:52:10;;;;;;;1.65;1.10;;;21.70;99.90;;;;;;5073730;28;20514;-47
2022/07/12 09:54:40;;;;;;;2.70;1.10;;;21.80;99.90;;;;;;5074505;28;20040;-47
2022/07/12 09:57:13;;;;;;;1.73;1.30;;;22.00;99.90;;;;;;5073098;28;20064;-48
2022/07/12 09:59:39;;;;;;;1.40;1.13;;;22.10;99.90;;;;;;5074356;28;20649;-48
2022/07/12 10:02:05;;;;;;;1.55;0.93;;;22.10;99.90;;;;;;5073669;28;20045;-48
2022/07/12 10:04:32;;;;;;;1.45;1.35;;;22.10;99.90;;;;;;5072375;28;20068;-48
2022/07/12 10:06:58;;;;;;;4.90;0.70;;;22.10;99.90;;;;;;5074484;28;20040;-48
2022/07/12 10:09:25;;;;;;;;;;;22.10;99.90;;;;;;5074693;28;20571;-50
2022/07/12 10:11:51;;;;;;;3.83;0.60;;;22.10;99.90;;;;;;5069157;28;19964;-49
2022/07/12 10:14:18;;;;;;;0.70;0.60;;;22.10;99.90;;;;;;5069404;28;20511;-50
2022/07/12 10:16:44;;;;;;;1.30;0.80;;;22.10;99.90;;;;;;5071748;28;20040;-48
2022/07/12 10:19:28;;;;;;;23.35;1.75;;;22.20;99.90;;;;;;5070753;28;20040;-47
2022/07/12 10:21:56;;;;;;;1.45;0.50;;;22.30;99.90;;;;;;5072807;28;20043;-45
2022/07/12 10:24:47;;;;;;;3.22;0.60;;;22.30;99.90;;;;;;5070660;28;20400;-46
2022/07/12 10:27:15;;;;;;;0.75;0.40;;;22.40;99.90;;;;;;5068288;28;20041;-47
2022/07/12 10:29:45;;;;;;;0.88;0.40;;;22.60;99.90;;;;;;5072505;28;20106;-47
2022/07/12 10:32:25;;;;;;;0.60;0.20;;;22.70;99.90;;;;;;5076415;28;20128;-46
2022/07/12 10:35:05;;;;;;;0.60;0.43;;;22.80;99.90;;;;;;5072545;28;20044;-45
2022/07/12 10:37:32;;;;;;;1.05;0.20;;;22.80;99.90;;;;;;5074996;28;20032;-46
2022/07/12 10:40:14;;;;;;;0.50;0.10;;;22.90;99.90;;;;;;5075204;28;20084;-46
2022/07/12 10:43:00;;;;;;;10.20;0.30;;;22.90;99.90;;;;;;5078019;28;20064;-46
2022/07/12 10:45:34;;;;;;;0.63;0.20;;;22.90;99.90;;;;;;5061431;28;20226;-46
2022/07/12 10:48:01;;;;;;;0.30;0.20;;;23.00;99.90;;;;;;5076660;28;20040;-46
2022/07/12 10:50:44;;;;;;;0.28;0.15;;;23.00;99.90;;;;;;5075293;28;20124;-45
2022/07/12 10:53:20;;;;;;;0.17;0.10;;;23.10;99.90;;;;;;5071500;28;20039;-50
2022/07/12 10:56:07;;;;;;;1.52;0.20;;;23.10;99.90;;;;;;5077648;28;20132;-45
2022/07/12 10:58:37;;;;;;;;;;;23.20;99.90;;;;;;5079005;28;20743;-49
2022/07/12 11:01:07;;;;;;;3.30;0.20;;;23.30;99.90;;;;;;5075028;28;20389;-47
2022/07/12 11:03:41;;;;;;;2.60;0.30;;;23.30;99.90;;;;;;5076321;28;20041;-48
2022/07/12 11:06:09;;;;;;;1.65;0.20;;;23.30;99.90;;;;;;5074491;28;20412;-47
2022/07/12 11:08:50;;;;;;;2.05;0.40;;;23.40;99.90;;;;;;5077517;28;20430;-47
2022/07/12 11:11:16;;;;;;;4.90;0.20;;;23.40;99.90;;;;;;5073963;28;20486;-44
2022/07/12 11:13:41;;;;;;;1.55;0.30;;;23.40;99.90;;;;;;5075351;28;20441;-47
2022/07/12 11:16:07;;;;;;;0.32;0.20;;;23.50;99.90;;;;;;5074000;28;20091;-48
2022/07/12 11:18:35;;;;;;;0.93;0.20;;;23.50;99.90;;;;;;5075295;28;20032;-48
2022/07/12 11:21:01;;;;;;;1.20;0.20;;;23.50;99.90;;;;;;5076052;28;20481;-48
2022/07/12 11:23:29;;;;;;;2.25;0.28;;;23.60;99.90;;;;;;5074640;28;20565;-48
2022/07/12 11:25:56;;;;;;;1.13;0.20;;;23.60;99.90;;;;;;5075952;28;20112;-50
2022/07/12 11:28:24;;;;;;;0.90;0.10;;;23.70;99.90;;;;;;5078687;28;20508;-48
2022/07/12 11:30:53;;;;;;;0.40;0.10;;;23.70;99.90;;;;;;5075956;28;20044;-47
2022/07/12 11:33:25;;;;;;;2.05;0.20;;;23.80;99.90;;;;;;5071091;28;20111;-47
2022/07/12 11:35:52;;;;;;;0.15;0.00;;;23.80;99.90;;;;;;5075984;28;20097;-48
2022/07/12 11:38:25;;;;;;;2.17;0.10;;;23.80;99.90;;;;;;5067808;28;20049;-47
2022/07/12 11:41:02;;;;;;;0.85;0.20;;;23.90;99.90;;;;;;5074735;28;20047;-47
2022/07/12 11:43:28;;;;;;;1.00;0.15;;;24.00;99.60;;;;;;5071327;28;20047;-48
2022/07/12 11:45:54;;;;;;;1.40;0.10;;;24.00;99.90;;;;;;5072045;28;20032;-48
2022/07/12 11:48:22;;;;;;;8.90;0.20;;;24.00;99.90;;;;;;5073185;28;20488;-48
2022/07/12 11:50:49;;;;;;;0.55;0.10;;;24.10;99.90;;;;;;5072540;28;20032;-46
2022/07/12 11:53:19;;;;;;;0.13;0.10;;;24.10;99.50;;;;;;5071689;28;20040;-47
2022/07/12 11:55:47;;;;;;;0.70;0.20;;;24.20;99.60;;;;;;5076348;28;20050;-48
2022/07/12 11:58:14;;;;;;;0.68;0.20;;;24.30;99.60;;;;;;5071604;28;20078;-47
2022/07/12 12:00:40;;;;;;;0.30;0.13;;;24.30;99.20;;;;;;5076691;28;20033;-48
2022/07/12 12:03:05;;;;;;;1.55;0.13;;;24.30;99.70;;;;;;5074921;28;20036;-48
2022/07/12 12:05:32;;;;;;;0.20;0.10;;;24.40;99.40;;;;;;5072591;28;20043;-47
2022/07/12 12:07:57;;;;;;;1.08;0.10;;;24.50;99.60;;;;;;5069956;28;20465;-48
2022/07/12 12:10:23;;;;;;;0.32;0.30;;;24.50;98.60;;;;;;5068874;28;20098;-49
2022/07/12 12:12:51;;;;;;;0.10;0.08;;;24.50;98.40;;;;;;5074375;28;20059;-48
2022/07/12 12:15:24;;;;;;;3.08;0.10;;;24.50;97.30;;;;;;5072676;28;20417;-50
2022/07/12 12:17:52;;;;;;;0.20;0.10;;;24.60;97.80;;;;;;5072187;28;20525;-48
2022/07/12 12:20:23;;;;;;;0.32;0.10;;;24.60;98.60;;;;;;5071866;28;20040;-48
2022/07/12 12:22:53;;;;;;;2.35;0.30;;;24.60;97.90;;;;;;5075632;28;20041;-48
2022/07/12 12:25:19;;;;;;;1.60;0.10;;;24.60;97.50;;;;;;5069555;28;20040;-48
2022/07/12 12:27:53;;;;;;;0.60;0.20;;;24.60;98.10;;;;;;5073022;28;20042;-47
2022/07/12 12:30:19;;;;;;;0.73;0.20;;;24.60;98.00;;;;;;5069313;28;20337;-48
2022/07/12 12:32:52;;;;;;;20.55;1.48;;;24.60;98.10;;;;;;5071261;28;20099;-47
2022/07/12 12:35:29;;;;;;;1.35;0.17;;;24.70;98.00;;;;;;5074489;28;20040;-48
2022/07/12 12:38:02;;;;;;;29.75;3.80;;;24.70;97.60;;;;;;5074430;28;20520;-48
2022/07/12 12:40:32;;;;;;;1.52;0.20;;;24.70;98.30;;;;;;5075200;28;20052;-49
2022/07/12 12:43:09;;;;;;;1.17;0.20;;;24.70;98.30;;;;;;5069677;28;20054;-50
2022/07/12 12:45:35;;;;;;;0.57;0.20;;;24.80;98.70;;;;;;5075546;28;20036;-53
2022/07/12 12:48:03;;;;;;;0.52;0.20;;;24.80;98.30;;;;;;5075307;28;20039;-52
2022/07/12 12:50:36;;;;;;;1.35;0.30;;;24.90;97.90;;;;;;5079221;28;20490;-53
2022/07/12 12:53:17;;;;;;;0.32;0.20;;;24.90;97.70;;;;;;5076097;28;20355;-52
2022/07/12 12:55:45;;;;;;;1.23;0.20;;;24.90;97.40;;;;;;5073187;28;20052;-51
2022/07/12 12:58:12;;;;;;;0.22;0.10;;;25.00;98.50;;;;;;5073673;28;20040;-50
2022/07/12 13:00:41;;;;;;;0.75;0.30;;;25.00;97.90;;;;;;5073536;28;20089;-53
2022/07/12 13:03:11;;;;;;;1.85;0.25;;;25.00;97.70;;;;;;5071632;28;20098;-53